sensor_id;sensor_type;location;lat;lon;timestamp;P1;durP1;ratioP1;P2;durP2;ratioP2
50671;SDS011;46021;55.882;37.654;2023-02-11T00:01:18;14.75;;;5.97;;
50671;SDS011;46021;55.882;37.654;2023-02-11T00:03:49;15.77;;;6.32;;
50671;SDS011;46021;55.882;37.654;2023-02-11T00:06:16;12.77;;;6.53;;
50671;SDS011;46021;55.882;37.654;2023-02-11T00:08:43;16.00;;;6.03;;
50671;SDS011;46021;55.882;37.654;2023-02-11T00:11:11;13.40;;;5.20;;
50671;SDS011;46021;55.882;37.654;2023-02-11T00:13:40;16.98;;;7.68;;
50671;SDS011;46021;55.882;37.654;2023-02-11T00:16:07;15.68;;;5.80;;
50671;SDS011;46021;55.882;37.654;2023-02-11T00:18:36;13.57;;;5.60;;
50671;SDS011;46021;55.882;37.654;2023-02-11T00:21:08;14.27;;;5.57;;
50671;SDS011;46021;55.882;37.654;2023-02-11T00:23:37;14.65;;;5.88;;
50671;SDS011;46021;55.882;37.654;2023-02-11T00:26:10;18.63;;;6.18;;
50671;SDS011;46021;55.882;37.654;2023-02-11T00:28:40;12.73;;;4.88;;
50671;SDS011;46021;55.882;37.654;2023-02-11T00:31:09;32.40;;;7.93;;
50671;SDS011;46021;55.882;37.654;2023-02-11T00:33:36;12.40;;;5.57;;
50671;SDS011;46021;55.882;37.654;2023-02-11T00:36:04;12.40;;;5.30;;
50671;SDS011;46021;55.882;37.654;2023-02-11T00:38:34;16.02;;;6.93;;
50671;SDS011;46021;55.882;37.654;2023-02-11T00:41:01;15.30;;;5.60;;
50671;SDS011;46021;55.882;37.654;2023-02-11T00:43:30;16.02;;;5.93;;
50671;SDS011;46021;55.882;37.654;2023-02-11T00:45:57;14.32;;;5.90;;
50671;SDS011;46021;55.882;37.654;2023-02-11T00:48:24;16.92;;;4.90;;
50671;SDS011;46021;55.882;37.654;2023-02-11T00:50:51;10.13;;;4.40;;
50671;SDS011;46021;55.882;37.654;2023-02-11T00:53:18;13.00;;;4.43;;
50671;SDS011;46021;55.882;37.654;2023-02-11T00:55:47;18.20;;;6.00;;
50671;SDS011;46021;55.882;37.654;2023-02-11T00:58:14;11.68;;;4.45;;
50671;SDS011;46021;55.882;37.654;2023-02-11T01:00:41;13.02;;;4.75;;
50671;SDS011;46021;55.882;37.654;2023-02-11T01:03:09;14.00;;;4.73;;
50671;SDS011;46021;55.882;37.654;2023-02-11T01:05:36;13.83;;;4.60;;
50671;SDS011;46021;55.882;37.654;2023-02-11T01:08:03;11.52;;;4.72;;
50671;SDS011;46021;55.882;37.654;2023-02-11T01:10:31;17.58;;;5.82;;
50671;SDS011;46021;55.882;37.654;2023-02-11T01:12:59;12.35;;;3.92;;
50671;SDS011;46021;55.882;37.654;2023-02-11T01:15:27;14.38;;;5.18;;
50671;SDS011;46021;55.882;37.654;2023-02-11T01:17:55;11.55;;;4.25;;
50671;SDS011;46021;55.882;37.654;2023-02-11T01:20:23;20.70;;;5.63;;
50671;SDS011;46021;55.882;37.654;2023-02-11T01:22:52;12.55;;;4.97;;
50671;SDS011;46021;55.882;37.654;2023-02-11T01:25:19;15.40;;;4.30;;
50671;SDS011;46021;55.882;37.654;2023-02-11T01:27:46;11.80;;;4.35;;
50671;SDS011;46021;55.882;37.654;2023-02-11T01:30:14;11.20;;;4.53;;
50671;SDS011;46021;55.882;37.654;2023-02-11T01:32:41;10.57;;;3.30;;
50671;SDS011;46021;55.882;37.654;2023-02-11T01:35:09;9.73;;;4.00;;
50671;SDS011;46021;55.882;37.654;2023-02-11T01:37:36;15.10;;;5.45;;
50671;SDS011;46021;55.882;37.654;2023-02-11T01:40:03;9.03;;;4.20;;
50671;SDS011;46021;55.882;37.654;2023-02-11T01:42:33;18.33;;;6.15;;
50671;SDS011;46021;55.882;37.654;2023-02-11T01:45:00;12.07;;;5.30;;
50671;SDS011;46021;55.882;37.654;2023-02-11T01:48:07;16.77;;;3.63;;
50671;SDS011;46021;55.882;37.654;2023-02-11T01:50:36;12.57;;;5.40;;
50671;SDS011;46021;55.882;37.654;2023-02-11T01:53:07;14.45;;;4.15;;
50671;SDS011;46021;55.882;37.654;2023-02-11T01:55:49;7.13;;;3.63;;
50671;SDS011;46021;55.882;37.654;2023-02-11T01:58:35;11.73;;;3.80;;
50671;SDS011;46021;55.882;37.654;2023-02-11T02:01:04;11.60;;;3.95;;
50671;SDS011;46021;55.882;37.654;2023-02-11T02:03:35;11.07;;;3.55;;
50671;SDS011;46021;55.882;37.654;2023-02-11T02:06:09;12.95;;;5.35;;
50671;SDS011;46021;55.882;37.654;2023-02-11T02:08:43;10.20;;;3.80;;
50671;SDS011;46021;55.882;37.654;2023-02-11T02:11:16;13.40;;;4.60;;
50671;SDS011;46021;55.882;37.654;2023-02-11T02:13:44;7.93;;;3.05;;
50671;SDS011;46021;55.882;37.654;2023-02-11T02:16:12;12.25;;;3.95;;
50671;SDS011;46021;55.882;37.654;2023-02-11T02:18:44;8.40;;;3.17;;
50671;SDS011;46021;55.882;37.654;2023-02-11T02:21:34;13.85;;;3.28;;
50671;SDS011;46021;55.882;37.654;2023-02-11T02:27:29;10.63;;;3.05;;
50671;SDS011;46021;55.882;37.654;2023-02-11T02:33:14;9.20;;;2.80;;
50671;SDS011;46021;55.882;37.654;2023-02-11T02:35:52;9.45;;;4.43;;
50671;SDS011;46021;55.882;37.654;2023-02-11T02:38:26;8.30;;;2.55;;
50671;SDS011;46021;55.882;37.654;2023-02-11T02:40:58;9.02;;;3.30;;
50671;SDS011;46021;55.882;37.654;2023-02-11T02:43:29;9.43;;;2.80;;
50671;SDS011;46021;55.882;37.654;2023-02-11T02:46:08;7.82;;;2.80;;
50671;SDS011;46021;55.882;37.654;2023-02-11T02:48:42;9.38;;;3.28;;
50671;SDS011;46021;55.882;37.654;2023-02-11T02:51:14;9.75;;;2.97;;
50671;SDS011;46021;55.882;37.654;2023-02-11T02:53:54;10.32;;;3.20;;
50671;SDS011;46021;55.882;37.654;2023-02-11T02:56:31;6.97;;;2.78;;
50671;SDS011;46021;55.882;37.654;2023-02-11T02:59:12;9.48;;;2.78;;
50671;SDS011;46021;55.882;37.654;2023-02-11T03:01:56;6.18;;;2.50;;
50671;SDS011;46021;55.882;37.654;2023-02-11T03:04:34;9.23;;;3.22;;
50671;SDS011;46021;55.882;37.654;2023-02-11T03:07:09;10.27;;;2.83;;
50671;SDS011;46021;55.882;37.654;2023-02-11T03:09:46;12.13;;;3.30;;
50671;SDS011;46021;55.882;37.654;2023-02-11T03:12:19;8.23;;;3.20;;
50671;SDS011;46021;55.882;37.654;2023-02-11T03:14:48;6.07;;;2.58;;
50671;SDS011;46021;55.882;37.654;2023-02-11T03:17:17;10.90;;;2.50;;
50671;SDS011;46021;55.882;37.654;2023-02-11T03:19:47;8.02;;;2.67;;
50671;SDS011;46021;55.882;37.654;2023-02-11T03:22:18;7.18;;;2.88;;
50671;SDS011;46021;55.882;37.654;2023-02-11T03:24:51;11.40;;;3.58;;
50671;SDS011;46021;55.882;37.654;2023-02-11T03:27:19;7.70;;;3.65;;
50671;SDS011;46021;55.882;37.654;2023-02-11T03:29:51;7.10;;;2.72;;
50671;SDS011;46021;55.882;37.654;2023-02-11T03:32:25;12.75;;;3.67;;
50671;SDS011;46021;55.882;37.654;2023-02-11T03:34:57;9.07;;;3.17;;
50671;SDS011;46021;55.882;37.654;2023-02-11T03:37:28;13.05;;;4.10;;
50671;SDS011;46021;55.882;37.654;2023-02-11T03:40:01;9.82;;;2.53;;
50671;SDS011;46021;55.882;37.654;2023-02-11T03:42:31;6.53;;;2.33;;
50671;SDS011;46021;55.882;37.654;2023-02-11T03:45:04;8.77;;;2.47;;
50671;SDS011;46021;55.882;37.654;2023-02-11T03:47:34;15.63;;;3.80;;
50671;SDS011;46021;55.882;37.654;2023-02-11T03:50:07;10.38;;;2.72;;
50671;SDS011;46021;55.882;37.654;2023-02-11T03:52:36;9.57;;;3.45;;
50671;SDS011;46021;55.882;37.654;2023-02-11T03:55:05;14.43;;;4.60;;
50671;SDS011;46021;55.882;37.654;2023-02-11T03:57:36;13.00;;;3.22;;
50671;SDS011;46021;55.882;37.654;2023-02-11T04:00:04;10.88;;;2.90;;
50671;SDS011;46021;55.882;37.654;2023-02-11T04:02:39;7.00;;;2.45;;
50671;SDS011;46021;55.882;37.654;2023-02-11T04:05:10;5.63;;;2.47;;
50671;SDS011;46021;55.882;37.654;2023-02-11T04:07:39;7.78;;;2.72;;
50671;SDS011;46021;55.882;37.654;2023-02-11T04:10:07;7.60;;;2.55;;
50671;SDS011;46021;55.882;37.654;2023-02-11T04:12:34;6.65;;;2.05;;
50671;SDS011;46021;55.882;37.654;2023-02-11T04:15:01;11.85;;;3.13;;
50671;SDS011;46021;55.882;37.654;2023-02-11T04:17:29;2.63;;;1.65;;
50671;SDS011;46021;55.882;37.654;2023-02-11T04:19:56;9.67;;;2.33;;
50671;SDS011;46021;55.882;37.654;2023-02-11T04:22:24;7.30;;;2.33;;
50671;SDS011;46021;55.882;37.654;2023-02-11T04:24:51;6.15;;;2.33;;
50671;SDS011;46021;55.882;37.654;2023-02-11T04:27:18;4.63;;;2.40;;
50671;SDS011;46021;55.882;37.654;2023-02-11T04:29:45;6.60;;;2.75;;
50671;SDS011;46021;55.882;37.654;2023-02-11T04:32:12;8.13;;;2.30;;
50671;SDS011;46021;55.882;37.654;2023-02-11T04:34:40;6.90;;;2.15;;
50671;SDS011;46021;55.882;37.654;2023-02-11T04:37:07;15.93;;;2.17;;
50671;SDS011;46021;55.882;37.654;2023-02-11T04:39:35;5.88;;;2.13;;
50671;SDS011;46021;55.882;37.654;2023-02-11T04:42:02;6.05;;;2.22;;
50671;SDS011;46021;55.882;37.654;2023-02-11T04:44:30;5.07;;;1.80;;
50671;SDS011;46021;55.882;37.654;2023-02-11T04:46:57;6.28;;;2.47;;
50671;SDS011;46021;55.882;37.654;2023-02-11T04:49:24;4.45;;;1.50;;
50671;SDS011;46021;55.882;37.654;2023-02-11T04:51:51;10.60;;;1.88;;
50671;SDS011;46021;55.882;37.654;2023-02-11T04:54:18;8.63;;;1.60;;
50671;SDS011;46021;55.882;37.654;2023-02-11T04:56:47;7.28;;;2.92;;
50671;SDS011;46021;55.882;37.654;2023-02-11T04:59:15;5.80;;;1.58;;
50671;SDS011;46021;55.882;37.654;2023-02-11T05:01:42;3.10;;;1.63;;
50671;SDS011;46021;55.882;37.654;2023-02-11T05:04:09;15.23;;;2.92;;
50671;SDS011;46021;55.882;37.654;2023-02-11T05:06:36;3.38;;;1.55;;
50671;SDS011;46021;55.882;37.654;2023-02-11T05:11:31;9.85;;;2.38;;
50671;SDS011;46021;55.882;37.654;2023-02-11T05:14:00;4.57;;;2.25;;
50671;SDS011;46021;55.882;37.654;2023-02-11T05:16:28;2.58;;;1.38;;
50671;SDS011;46021;55.882;37.654;2023-02-11T05:18:55;6.53;;;2.13;;
50671;SDS011;46021;55.882;37.654;2023-02-11T05:21:22;6.47;;;2.58;;
50671;SDS011;46021;55.882;37.654;2023-02-11T05:23:49;4.75;;;1.83;;
50671;SDS011;46021;55.882;37.654;2023-02-11T05:26:16;7.70;;;2.40;;
50671;SDS011;46021;55.882;37.654;2023-02-11T05:28:44;9.25;;;2.03;;
50671;SDS011;46021;55.882;37.654;2023-02-11T05:31:12;3.73;;;1.60;;
50671;SDS011;46021;55.882;37.654;2023-02-11T05:33:41;6.80;;;2.50;;
50671;SDS011;46021;55.882;37.654;2023-02-11T05:36:09;13.55;;;2.53;;
50671;SDS011;46021;55.882;37.654;2023-02-11T05:38:37;9.05;;;2.92;;
50671;SDS011;46021;55.882;37.654;2023-02-11T05:41:06;7.68;;;2.00;;
50671;SDS011;46021;55.882;37.654;2023-02-11T05:43:34;7.53;;;2.22;;
50671;SDS011;46021;55.882;37.654;2023-02-11T05:46:01;14.20;;;2.60;;
50671;SDS011;46021;55.882;37.654;2023-02-11T05:48:29;9.20;;;2.28;;
50671;SDS011;46021;55.882;37.654;2023-02-11T05:50:57;8.50;;;2.00;;
50671;SDS011;46021;55.882;37.654;2023-02-11T05:53:32;7.95;;;2.65;;
50671;SDS011;46021;55.882;37.654;2023-02-11T05:55:59;10.05;;;2.55;;
50671;SDS011;46021;55.882;37.654;2023-02-11T05:58:26;7.07;;;2.50;;
50671;SDS011;46021;55.882;37.654;2023-02-11T06:00:53;10.88;;;2.03;;
50671;SDS011;46021;55.882;37.654;2023-02-11T06:03:21;8.65;;;1.70;;
50671;SDS011;46021;55.882;37.654;2023-02-11T06:05:50;4.87;;;1.53;;
50671;SDS011;46021;55.882;37.654;2023-02-11T06:08:17;13.32;;;2.47;;
50671;SDS011;46021;55.882;37.654;2023-02-11T06:10:44;8.00;;;1.90;;
50671;SDS011;46021;55.882;37.654;2023-02-11T06:13:11;8.85;;;2.67;;
50671;SDS011;46021;55.882;37.654;2023-02-11T06:15:38;5.07;;;1.85;;
50671;SDS011;46021;55.882;37.654;2023-02-11T06:18:06;4.47;;;2.10;;
50671;SDS011;46021;55.882;37.654;2023-02-11T06:20:34;8.52;;;2.33;;
50671;SDS011;46021;55.882;37.654;2023-02-11T06:23:02;8.25;;;2.67;;
50671;SDS011;46021;55.882;37.654;2023-02-11T06:25:29;5.72;;;1.95;;
50671;SDS011;46021;55.882;37.654;2023-02-11T06:27:56;8.13;;;2.85;;
50671;SDS011;46021;55.882;37.654;2023-02-11T06:30:23;6.00;;;2.30;;
50671;SDS011;46021;55.882;37.654;2023-02-11T06:32:50;7.50;;;1.77;;
50671;SDS011;46021;55.882;37.654;2023-02-11T06:35:19;11.20;;;2.30;;
50671;SDS011;46021;55.882;37.654;2023-02-11T06:37:46;6.38;;;2.38;;
50671;SDS011;46021;55.882;37.654;2023-02-11T06:42:43;4.78;;;2.22;;
50671;SDS011;46021;55.882;37.654;2023-02-11T06:45:10;6.00;;;2.50;;
50671;SDS011;46021;55.882;37.654;2023-02-11T06:47:38;9.95;;;3.13;;
50671;SDS011;46021;55.882;37.654;2023-02-11T06:50:07;10.02;;;2.30;;
50671;SDS011;46021;55.882;37.654;2023-02-11T06:52:36;10.45;;;2.75;;
50671;SDS011;46021;55.882;37.654;2023-02-11T06:55:03;4.93;;;2.20;;
50671;SDS011;46021;55.882;37.654;2023-02-11T06:57:32;14.93;;;3.35;;
50671;SDS011;46021;55.882;37.654;2023-02-11T06:59:59;5.30;;;2.28;;
50671;SDS011;46021;55.882;37.654;2023-02-11T07:02:29;9.98;;;3.13;;
50671;SDS011;46021;55.882;37.654;2023-02-11T07:04:56;4.93;;;2.08;;
50671;SDS011;46021;55.882;37.654;2023-02-11T07:07:23;8.23;;;1.95;;
50671;SDS011;46021;55.882;37.654;2023-02-11T07:09:50;6.00;;;2.45;;
50671;SDS011;46021;55.882;37.654;2023-02-11T07:12:17;9.07;;;3.33;;
50671;SDS011;46021;55.882;37.654;2023-02-11T07:14:45;9.38;;;3.35;;
50671;SDS011;46021;55.882;37.654;2023-02-11T07:17:12;10.60;;;2.17;;
50671;SDS011;46021;55.882;37.654;2023-02-11T07:19:39;9.43;;;2.60;;
50671;SDS011;46021;55.882;37.654;2023-02-11T07:22:06;8.43;;;3.03;;
50671;SDS011;46021;55.882;37.654;2023-02-11T07:24:34;21.33;;;3.00;;
50671;SDS011;46021;55.882;37.654;2023-02-11T07:27:00;7.78;;;2.58;;
50671;SDS011;46021;55.882;37.654;2023-02-11T07:29:28;14.85;;;3.15;;
50671;SDS011;46021;55.882;37.654;2023-02-11T07:31:56;8.70;;;2.67;;
50671;SDS011;46021;55.882;37.654;2023-02-11T07:34:23;8.48;;;2.70;;
50671;SDS011;46021;55.882;37.654;2023-02-11T07:36:50;7.10;;;2.67;;
50671;SDS011;46021;55.882;37.654;2023-02-11T07:39:17;9.07;;;2.83;;
50671;SDS011;46021;55.882;37.654;2023-02-11T07:41:46;6.93;;;2.63;;
50671;SDS011;46021;55.882;37.654;2023-02-11T07:44:14;10.85;;;2.97;;
50671;SDS011;46021;55.882;37.654;2023-02-11T07:46:41;12.30;;;3.60;;
50671;SDS011;46021;55.882;37.654;2023-02-11T07:49:10;5.80;;;2.15;;
50671;SDS011;46021;55.882;37.654;2023-02-11T07:51:37;12.07;;;3.05;;
50671;SDS011;46021;55.882;37.654;2023-02-11T07:54:05;9.13;;;3.23;;
50671;SDS011;46021;55.882;37.654;2023-02-11T07:56:32;7.82;;;3.90;;
50671;SDS011;46021;55.882;37.654;2023-02-11T07:59:00;12.85;;;2.88;;
50671;SDS011;46021;55.882;37.654;2023-02-11T08:01:29;8.15;;;3.95;;
50671;SDS011;46021;55.882;37.654;2023-02-11T08:03:57;6.30;;;3.00;;
50671;SDS011;46021;55.882;37.654;2023-02-11T08:06:28;8.70;;;3.45;;
50671;SDS011;46021;55.882;37.654;2023-02-11T08:08:57;7.90;;;3.10;;
50671;SDS011;46021;55.882;37.654;2023-02-11T08:11:25;13.40;;;3.13;;
50671;SDS011;46021;55.882;37.654;2023-02-11T08:13:54;8.50;;;3.83;;
50671;SDS011;46021;55.882;37.654;2023-02-11T08:16:23;12.30;;;3.17;;
50671;SDS011;46021;55.882;37.654;2023-02-11T08:18:51;10.48;;;3.63;;
50671;SDS011;46021;55.882;37.654;2023-02-11T08:21:21;8.43;;;3.75;;
50671;SDS011;46021;55.882;37.654;2023-02-11T08:23:50;10.10;;;3.77;;
50671;SDS011;46021;55.882;37.654;2023-02-11T08:26:18;12.50;;;3.92;;
50671;SDS011;46021;55.882;37.654;2023-02-11T08:28:47;12.30;;;3.42;;
50671;SDS011;46021;55.882;37.654;2023-02-11T08:31:16;8.52;;;3.78;;
50671;SDS011;46021;55.882;37.654;2023-02-11T08:33:45;13.48;;;4.57;;
50671;SDS011;46021;55.882;37.654;2023-02-11T08:36:12;9.80;;;4.03;;
50671;SDS011;46021;55.882;37.654;2023-02-11T08:38:41;11.90;;;4.55;;
50671;SDS011;46021;55.882;37.654;2023-02-11T08:41:10;9.18;;;4.43;;
50671;SDS011;46021;55.882;37.654;2023-02-11T08:43:39;12.15;;;4.88;;
50671;SDS011;46021;55.882;37.654;2023-02-11T08:46:07;15.10;;;5.18;;
50671;SDS011;46021;55.882;37.654;2023-02-11T08:51:04;20.45;;;5.43;;
50671;SDS011;46021;55.882;37.654;2023-02-11T08:53:32;9.98;;;4.00;;
50671;SDS011;46021;55.882;37.654;2023-02-11T08:55:59;9.37;;;3.30;;
50671;SDS011;46021;55.882;37.654;2023-02-11T08:58:28;9.80;;;3.80;;
50671;SDS011;46021;55.882;37.654;2023-02-11T09:00:55;10.15;;;3.65;;
50671;SDS011;46021;55.882;37.654;2023-02-11T09:03:22;16.90;;;4.47;;
50671;SDS011;46021;55.882;37.654;2023-02-11T09:05:50;14.87;;;4.77;;
50671;SDS011;46021;55.882;37.654;2023-02-11T09:08:18;9.57;;;4.28;;
50671;SDS011;46021;55.882;37.654;2023-02-11T09:13:13;10.55;;;4.03;;
50671;SDS011;46021;55.882;37.654;2023-02-11T09:15:44;10.02;;;5.28;;
50671;SDS011;46021;55.882;37.654;2023-02-11T09:18:12;8.35;;;3.75;;
50671;SDS011;46021;55.882;37.654;2023-02-11T09:20:39;6.93;;;3.20;;
50671;SDS011;46021;55.882;37.654;2023-02-11T09:23:06;23.45;;;4.55;;
50671;SDS011;46021;55.882;37.654;2023-02-11T09:25:37;13.75;;;4.25;;
50671;SDS011;46021;55.882;37.654;2023-02-11T09:28:04;9.50;;;4.03;;
50671;SDS011;46021;55.882;37.654;2023-02-11T09:30:32;10.55;;;4.43;;
50671;SDS011;46021;55.882;37.654;2023-02-11T09:33:01;12.63;;;4.15;;
50671;SDS011;46021;55.882;37.654;2023-02-11T09:35:28;18.27;;;5.55;;
50671;SDS011;46021;55.882;37.654;2023-02-11T09:37:55;22.98;;;5.15;;
50671;SDS011;46021;55.882;37.654;2023-02-11T09:40:22;8.95;;;3.95;;
50671;SDS011;46021;55.882;37.654;2023-02-11T09:42:49;14.85;;;4.82;;
50671;SDS011;46021;55.882;37.654;2023-02-11T09:45:23;10.95;;;3.97;;
50671;SDS011;46021;55.882;37.654;2023-02-11T09:47:53;10.48;;;4.15;;
50671;SDS011;46021;55.882;37.654;2023-02-11T09:50:25;14.50;;;4.95;;
50671;SDS011;46021;55.882;37.654;2023-02-11T09:52:57;13.55;;;4.78;;
50671;SDS011;46021;55.882;37.654;2023-02-11T09:55:28;11.18;;;4.03;;
50671;SDS011;46021;55.882;37.654;2023-02-11T09:57:59;9.25;;;3.90;;
50671;SDS011;46021;55.882;37.654;2023-02-11T10:00:30;10.60;;;4.90;;
50671;SDS011;46021;55.882;37.654;2023-02-11T10:03:07;9.98;;;4.22;;
50671;SDS011;46021;55.882;37.654;2023-02-11T10:06:02;9.82;;;4.15;;
50671;SDS011;46021;55.882;37.654;2023-02-11T10:08:40;14.68;;;4.43;;
50671;SDS011;46021;55.882;37.654;2023-02-11T10:13:52;11.85;;;4.07;;
50671;SDS011;46021;55.882;37.654;2023-02-11T10:16:30;10.38;;;4.03;;
50671;SDS011;46021;55.882;37.654;2023-02-11T10:22:04;13.80;;;3.45;;
50671;SDS011;46021;55.882;37.654;2023-02-11T10:24:35;10.65;;;3.53;;
50671;SDS011;46021;55.882;37.654;2023-02-11T10:27:05;7.15;;;3.83;;
50671;SDS011;46021;55.882;37.654;2023-02-11T10:29:41;11.50;;;4.25;;
50671;SDS011;46021;55.882;37.654;2023-02-11T10:32:19;10.02;;;3.58;;
50671;SDS011;46021;55.882;37.654;2023-02-11T10:34:55;7.00;;;3.05;;
50671;SDS011;46021;55.882;37.654;2023-02-11T10:37:28;12.82;;;3.88;;
50671;SDS011;46021;55.882;37.654;2023-02-11T10:39:56;16.00;;;4.07;;
50671;SDS011;46021;55.882;37.654;2023-02-11T10:42:29;8.70;;;3.58;;
50671;SDS011;46021;55.882;37.654;2023-02-11T10:44:57;10.95;;;3.58;;
50671;SDS011;46021;55.882;37.654;2023-02-11T10:47:32;14.65;;;4.43;;
50671;SDS011;46021;55.882;37.654;2023-02-11T10:50:06;9.35;;;3.58;;
50671;SDS011;46021;55.882;37.654;2023-02-11T10:52:46;9.93;;;4.15;;
50671;SDS011;46021;55.882;37.654;2023-02-11T10:55:14;11.90;;;5.15;;
50671;SDS011;46021;55.882;37.654;2023-02-11T10:57:51;8.73;;;3.30;;
50671;SDS011;46021;55.882;37.654;2023-02-11T11:00:22;9.52;;;3.38;;
50671;SDS011;46021;55.882;37.654;2023-02-11T11:02:59;10.98;;;3.72;;
50671;SDS011;46021;55.882;37.654;2023-02-11T11:05:28;10.20;;;4.18;;
50671;SDS011;46021;55.882;37.654;2023-02-11T11:07:59;12.68;;;4.90;;
50671;SDS011;46021;55.882;37.654;2023-02-11T11:10:33;10.95;;;3.97;;
50671;SDS011;46021;55.882;37.654;2023-02-11T11:13:22;12.38;;;3.92;;
50671;SDS011;46021;55.882;37.654;2023-02-11T11:16:05;11.57;;;4.35;;
50671;SDS011;46021;55.882;37.654;2023-02-11T11:18:50;8.95;;;4.35;;
50671;SDS011;46021;55.882;37.654;2023-02-11T11:21:20;18.88;;;5.82;;
50671;SDS011;46021;55.882;37.654;2023-02-11T11:23:53;13.82;;;4.65;;
50671;SDS011;46021;55.882;37.654;2023-02-11T11:26:22;6.10;;;3.00;;
50671;SDS011;46021;55.882;37.654;2023-02-11T11:28:55;6.82;;;3.63;;
50671;SDS011;46021;55.882;37.654;2023-02-11T11:31:26;12.82;;;3.83;;
50671;SDS011;46021;55.882;37.654;2023-02-11T11:33:56;12.85;;;4.95;;
50671;SDS011;46021;55.882;37.654;2023-02-11T11:36:30;15.02;;;4.55;;
50671;SDS011;46021;55.882;37.654;2023-02-11T11:39:02;9.45;;;3.67;;
50671;SDS011;46021;55.882;37.654;2023-02-11T11:41:54;8.02;;;3.80;;
50671;SDS011;46021;55.882;37.654;2023-02-11T11:49:49;11.85;;;4.28;;
50671;SDS011;46021;55.882;37.654;2023-02-11T11:52:32;11.18;;;3.70;;
50671;SDS011;46021;55.882;37.654;2023-02-11T11:55:10;11.00;;;3.67;;
50671;SDS011;46021;55.882;37.654;2023-02-11T11:57:42;9.98;;;4.60;;
50671;SDS011;46021;55.882;37.654;2023-02-11T12:00:13;12.95;;;4.38;;
50671;SDS011;46021;55.882;37.654;2023-02-11T12:05:36;15.50;;;5.55;;
50671;SDS011;46021;55.882;37.654;2023-02-11T12:08:11;9.57;;;5.22;;
50671;SDS011;46021;55.882;37.654;2023-02-11T12:10:52;21.95;;;5.88;;
50671;SDS011;46021;55.882;37.654;2023-02-11T12:13:34;14.23;;;5.15;;
50671;SDS011;46021;55.882;37.654;2023-02-11T12:16:14;12.85;;;5.53;;
50671;SDS011;46021;55.882;37.654;2023-02-11T12:19:05;16.17;;;6.00;;
50671;SDS011;46021;55.882;37.654;2023-02-11T12:21:44;16.45;;;5.03;;
50671;SDS011;46021;55.882;37.654;2023-02-11T12:24:27;11.27;;;4.55;;
50671;SDS011;46021;55.882;37.654;2023-02-11T12:27:10;9.75;;;4.20;;
50671;SDS011;46021;55.882;37.654;2023-02-11T12:29:47;13.30;;;4.93;;
50671;SDS011;46021;55.882;37.654;2023-02-11T12:32:26;11.57;;;3.72;;
50671;SDS011;46021;55.882;37.654;2023-02-11T12:35:10;8.60;;;4.50;;
50671;SDS011;46021;55.882;37.654;2023-02-11T12:37:51;11.68;;;4.50;;
50671;SDS011;46021;55.882;37.654;2023-02-11T12:43:28;15.68;;;4.45;;
50671;SDS011;46021;55.882;37.654;2023-02-11T12:46:01;12.82;;;4.97;;
50671;SDS011;46021;55.882;37.654;2023-02-11T12:48:57;10.52;;;4.70;;
50671;SDS011;46021;55.882;37.654;2023-02-11T12:51:49;16.20;;;6.10;;
50671;SDS011;46021;55.882;37.654;2023-02-11T12:54:29;15.10;;;6.05;;
50671;SDS011;46021;55.882;37.654;2023-02-11T12:57:00;15.90;;;6.18;;
50671;SDS011;46021;55.882;37.654;2023-02-11T12:59:42;17.08;;;5.70;;
50671;SDS011;46021;55.882;37.654;2023-02-11T13:02:22;16.10;;;4.90;;
50671;SDS011;46021;55.882;37.654;2023-02-11T13:04:55;21.08;;;6.45;;
50671;SDS011;46021;55.882;37.654;2023-02-11T13:07:27;12.27;;;4.53;;
50671;SDS011;46021;55.882;37.654;2023-02-11T13:10:00;14.63;;;5.10;;
50671;SDS011;46021;55.882;37.654;2023-02-11T13:12:33;13.07;;;5.35;;
50671;SDS011;46021;55.882;37.654;2023-02-11T13:15:20;21.38;;;5.45;;
50671;SDS011;46021;55.882;37.654;2023-02-11T13:17:51;14.70;;;4.88;;
50671;SDS011;46021;55.882;37.654;2023-02-11T13:20:28;20.23;;;5.90;;
50671;SDS011;46021;55.882;37.654;2023-02-11T13:23:06;16.10;;;6.60;;
50671;SDS011;46021;55.882;37.654;2023-02-11T13:25:41;14.02;;;5.07;;
50671;SDS011;46021;55.882;37.654;2023-02-11T13:28:18;18.45;;;6.15;;
50671;SDS011;46021;55.882;37.654;2023-02-11T13:30:52;12.13;;;5.20;;
50671;SDS011;46021;55.882;37.654;2023-02-11T13:33:30;15.48;;;5.65;;
50671;SDS011;46021;55.882;37.654;2023-02-11T13:36:12;15.45;;;5.38;;
50671;SDS011;46021;55.882;37.654;2023-02-11T13:38:55;22.40;;;6.43;;
50671;SDS011;46021;55.882;37.654;2023-02-11T13:41:26;26.25;;;6.00;;
50671;SDS011;46021;55.882;37.654;2023-02-11T13:43:57;19.38;;;6.93;;
50671;SDS011;46021;55.882;37.654;2023-02-11T13:46:45;15.70;;;6.03;;
50671;SDS011;46021;55.882;37.654;2023-02-11T13:49:18;19.05;;;5.97;;
50671;SDS011;46021;55.882;37.654;2023-02-11T13:51:48;16.40;;;5.45;;
50671;SDS011;46021;55.882;37.654;2023-02-11T13:54:19;16.42;;;5.53;;
50671;SDS011;46021;55.882;37.654;2023-02-11T13:59:49;10.07;;;4.45;;
50671;SDS011;46021;55.882;37.654;2023-02-11T14:02:22;13.05;;;5.07;;
50671;SDS011;46021;55.882;37.654;2023-02-11T14:05:23;14.25;;;6.15;;
50671;SDS011;46021;55.882;37.654;2023-02-11T14:08:14;19.17;;;5.93;;
50671;SDS011;46021;55.882;37.654;2023-02-11T14:11:00;14.90;;;5.28;;
50671;SDS011;46021;55.882;37.654;2023-02-11T14:16:28;17.83;;;6.32;;
50671;SDS011;46021;55.882;37.654;2023-02-11T14:19:00;16.60;;;6.90;;
50671;SDS011;46021;55.882;37.654;2023-02-11T14:21:32;13.05;;;4.72;;
50671;SDS011;46021;55.882;37.654;2023-02-11T14:27:06;21.55;;;6.13;;
50671;SDS011;46021;55.882;37.654;2023-02-11T14:29:37;15.32;;;6.32;;
50671;SDS011;46021;55.882;37.654;2023-02-11T14:32:18;23.77;;;6.57;;
50671;SDS011;46021;55.882;37.654;2023-02-11T14:34:59;14.52;;;6.40;;
50671;SDS011;46021;55.882;37.654;2023-02-11T14:37:37;18.00;;;6.40;;
50671;SDS011;46021;55.882;37.654;2023-02-11T14:40:22;24.25;;;7.80;;
50671;SDS011;46021;55.882;37.654;2023-02-11T14:42:54;21.40;;;5.75;;
50671;SDS011;46021;55.882;37.654;2023-02-11T14:45:27;18.60;;;6.60;;
50671;SDS011;46021;55.882;37.654;2023-02-11T14:47:57;20.35;;;7.05;;
50671;SDS011;46021;55.882;37.654;2023-02-11T14:50:32;19.58;;;6.80;;
50671;SDS011;46021;55.882;37.654;2023-02-11T14:53:05;18.23;;;6.82;;
50671;SDS011;46021;55.882;37.654;2023-02-11T14:55:38;19.35;;;6.85;;
50671;SDS011;46021;55.882;37.654;2023-02-11T14:58:12;24.70;;;6.57;;
50671;SDS011;46021;55.882;37.654;2023-02-11T15:00:53;18.60;;;6.43;;
50671;SDS011;46021;55.882;37.654;2023-02-11T15:03:25;21.38;;;7.20;;
50671;SDS011;46021;55.882;37.654;2023-02-11T15:05:58;17.80;;;7.57;;
50671;SDS011;46021;55.882;37.654;2023-02-11T15:08:28;20.98;;;6.55;;
50671;SDS011;46021;55.882;37.654;2023-02-11T15:10:56;13.95;;;6.03;;
50671;SDS011;46021;55.882;37.654;2023-02-11T15:13:26;16.73;;;6.22;;
50671;SDS011;46021;55.882;37.654;2023-02-11T15:16:02;19.05;;;7.65;;
50671;SDS011;46021;55.882;37.654;2023-02-11T15:18:34;19.85;;;6.40;;
50671;SDS011;46021;55.882;37.654;2023-02-11T15:21:06;20.90;;;6.85;;
50671;SDS011;46021;55.882;37.654;2023-02-11T15:23:34;22.67;;;5.72;;
50671;SDS011;46021;55.882;37.654;2023-02-11T15:26:11;19.60;;;6.47;;
50671;SDS011;46021;55.882;37.654;2023-02-11T15:28:44;19.88;;;6.88;;
50671;SDS011;46021;55.882;37.654;2023-02-11T15:31:17;26.27;;;7.55;;
50671;SDS011;46021;55.882;37.654;2023-02-11T15:33:47;26.50;;;7.65;;